createdAt,value
2023-04-19T00:00:14.674Z,14.13
2023-04-19T00:02:44.962Z,19.27
2023-04-19T00:05:13.983Z,28.38
2023-04-19T00:07:41.451Z,33.72
2023-04-19T00:10:09.072Z,41.53
2023-04-19T00:12:36.680Z,24.37
2023-04-19T00:15:03.938Z,14.95
2023-04-19T00:17:33.958Z,21.67
2023-04-19T00:20:01.356Z,20.50
2023-04-19T00:22:29.170Z,21.50
2023-04-19T00:24:56.322Z,18.23
2023-04-19T00:27:23.403Z,19.33
2023-04-19T00:29:50.559Z,19.42
2023-04-19T00:32:17.577Z,32.03
2023-04-19T00:34:44.700Z,20.10
2023-04-19T00:37:11.788Z,16.13
2023-04-19T00:39:39.722Z,18.55
2023-04-19T00:42:06.729Z,13.90
2023-04-19T00:44:33.897Z,15.60
2023-04-19T00:47:01.605Z,16.10
2023-04-19T00:49:30.100Z,17.53
2023-04-19T00:51:57.126Z,19.80
2023-04-19T00:54:24.819Z,26.33
2023-04-19T00:56:51.973Z,23.92
2023-04-19T00:59:19.290Z,28.48
2023-04-19T01:01:46.531Z,27.20
2023-04-19T01:04:14.217Z,18.83
2023-04-19T01:06:42.484Z,22.98
2023-04-19T01:09:11.875Z,23.13
2023-04-19T01:11:43.357Z,18.17
2023-04-19T01:14:11.046Z,22.47
2023-04-19T01:16:39.336Z,22.67
2023-04-19T01:19:06.719Z,15.63
2023-04-19T01:21:38.445Z,17.30
2023-04-19T01:24:05.928Z,16.75
2023-04-19T01:26:33.152Z,20.63
2023-04-19T01:29:03.150Z,16.75
2023-04-19T01:31:30.252Z,19.73
2023-04-19T01:33:57.412Z,19.75
2023-04-19T01:36:24.531Z,19.25
2023-04-19T01:38:51.659Z,19.23
2023-04-19T01:41:20.507Z,26.80
2023-04-19T01:43:47.763Z,19.00
2023-04-19T01:46:15.222Z,17.20
2023-04-19T01:48:42.324Z,14.90
2023-04-19T01:51:09.356Z,12.60
2023-04-19T01:53:36.562Z,21.92
2023-04-19T01:56:03.757Z,17.92
2023-04-19T01:58:30.849Z,13.85
2023-04-19T02:00:57.915Z,16.90
2023-04-19T02:03:25.285Z,16.10
2023-04-19T02:05:52.718Z,16.00
2023-04-19T02:08:22.737Z,17.17
2023-04-19T02:10:49.680Z,16.55
2023-04-19T02:13:17.995Z,16.63
2023-04-19T02:15:45.317Z,17.83
2023-04-19T02:18:32.506Z,17.20
2023-04-19T02:20:59.819Z,15.90
2023-04-19T02:23:26.945Z,18.15
2023-04-19T02:25:54.066Z,22.60
2023-04-19T02:28:21.455Z,17.63
2023-04-19T02:30:49.426Z,18.27
2023-04-19T02:33:16.505Z,16.08
2023-04-19T02:35:43.599Z,18.60
2023-04-19T02:38:11.044Z,22.83
2023-04-19T02:40:38.049Z,14.73
2023-04-19T02:43:05.144Z,18.90
2023-04-19T02:45:32.236Z,21.88
2023-04-19T02:47:59.809Z,19.35
2023-04-19T02:50:27.461Z,22.90
2023-04-19T02:52:54.509Z,26.17
2023-04-19T02:55:24.359Z,22.70
2023-04-19T02:58:00.846Z,29.83
2023-04-19T03:00:27.954Z,29.52
2023-04-19T03:03:04.874Z,20.45
2023-04-19T03:05:33.683Z,21.33
2023-04-19T03:08:00.892Z,17.83
2023-04-19T03:10:28.476Z,14.75
2023-04-19T03:12:55.664Z,18.95
2023-04-19T03:15:23.171Z,20.48
2023-04-19T03:17:50.630Z,18.03
2023-04-19T03:20:20.979Z,20.77
2023-04-19T03:22:48.383Z,14.18
2023-04-19T03:25:16.202Z,16.55
2023-04-19T03:27:48.181Z,22.25
2023-04-19T03:30:18.596Z,26.90
2023-04-19T03:32:47.406Z,27.35
2023-04-19T03:35:14.866Z,17.02
2023-04-19T03:37:43.591Z,16.45
2023-04-19T03:40:11.183Z,16.10
2023-04-19T03:42:38.168Z,22.37
2023-04-19T03:45:13.036Z,21.85
2023-04-19T03:47:46.061Z,20.55
2023-04-19T03:50:13.641Z,18.73
2023-04-19T03:53:00.615Z,20.90
2023-04-19T03:55:27.943Z,20.97
2023-04-19T03:57:55.266Z,20.42
2023-04-19T04:00:47.062Z,20.23
2023-04-19T04:03:15.679Z,20.63
2023-04-19T04:05:43.128Z,22.85
2023-04-19T04:08:10.311Z,20.83
2023-04-19T04:10:37.494Z,31.00
2023-04-19T04:13:04.769Z,22.83
2023-04-19T04:15:40.660Z,19.67
2023-04-19T04:18:11.388Z,29.05
2023-04-19T04:20:38.801Z,22.07
2023-04-19T04:23:10.906Z,17.80
2023-04-19T04:25:43.015Z,22.95
2023-04-19T04:28:13.621Z,24.92
2023-04-19T04:30:42.030Z,20.45
2023-04-19T04:33:12.198Z,18.67
2023-04-19T04:35:42.192Z,20.67
2023-04-19T04:38:24.040Z,18.73
2023-04-19T04:40:56.076Z,33.00
2023-04-19T04:43:25.876Z,23.13
2023-04-19T04:45:55.819Z,17.80
2023-04-19T04:48:31.465Z,26.73
2023-04-19T04:50:58.584Z,21.75
2023-04-19T04:53:27.761Z,19.33
2023-04-19T04:55:55.487Z,23.08
2023-04-19T04:58:23.181Z,23.92
2023-04-19T05:01:10.769Z,23.05
2023-04-19T05:03:40.713Z,24.60
2023-04-19T05:06:13.181Z,27.83
2023-04-19T05:08:40.284Z,22.50
2023-04-19T05:11:17.356Z,25.63
2023-04-19T05:13:45.008Z,20.17
2023-04-19T05:16:12.680Z,20.30
2023-04-19T05:18:42.599Z,24.00
2023-04-19T05:21:10.655Z,25.95
2023-04-19T05:23:39.596Z,26.63
2023-04-19T05:26:07.151Z,19.40
2023-04-19T05:28:34.336Z,24.20
2023-04-19T05:31:08.440Z,20.77
2023-04-19T05:33:44.107Z,17.30
2023-04-19T05:36:11.235Z,16.63
2023-04-19T05:38:38.379Z,19.90
2023-04-19T05:41:06.862Z,21.27
2023-04-19T05:43:33.896Z,23.58
2023-04-19T05:46:02.165Z,16.02
2023-04-19T05:48:29.617Z,31.10
2023-04-19T05:51:22.854Z,19.67
2023-04-19T05:54:01.501Z,24.25
2023-04-19T05:56:30.075Z,25.23
2023-04-19T05:58:57.332Z,26.20
2023-04-19T06:01:24.639Z,26.58
2023-04-19T06:03:53.832Z,24.60
2023-04-19T06:06:24.074Z,19.65
2023-04-19T06:08:53.988Z,18.52
2023-04-19T06:11:28.911Z,19.20
2023-04-19T06:14:02.572Z,17.30
2023-04-19T06:16:29.811Z,30.50
2023-04-19T06:18:57.652Z,20.00
2023-04-19T06:21:24.689Z,17.40
2023-04-19T06:23:51.801Z,20.10
2023-04-19T06:26:19.288Z,21.70
2023-04-19T06:28:46.308Z,19.63
2023-04-19T06:31:13.655Z,17.15
2023-04-19T06:33:40.780Z,15.60
2023-04-19T06:36:08.089Z,22.55
2023-04-19T06:38:35.086Z,14.60
2023-04-19T06:41:02.237Z,21.07
2023-04-19T06:43:32.008Z,14.75
2023-04-19T06:46:04.847Z,17.80
2023-04-19T06:48:32.292Z,16.73
2023-04-19T06:50:59.456Z,15.50
2023-04-19T06:53:27.631Z,11.13
2023-04-19T06:55:59.945Z,16.88
2023-04-19T06:58:27.756Z,11.93
2023-04-19T07:00:55.277Z,19.17
2023-04-19T07:03:22.714Z,17.17
2023-04-19T07:05:52.284Z,12.33
2023-04-19T07:08:19.323Z,14.80
2023-04-19T07:10:46.493Z,17.33
2023-04-19T07:13:13.782Z,21.73
2023-04-19T07:15:41.035Z,14.68
2023-04-19T07:18:10.556Z,20.90
2023-04-19T07:20:37.844Z,12.82
2023-04-19T07:23:04.916Z,16.42
2023-04-19T07:25:31.994Z,18.55
2023-04-19T07:27:59.080Z,17.67
2023-04-19T07:30:26.195Z,16.03
2023-04-19T07:32:53.842Z,18.15
2023-04-19T07:35:21.031Z,16.02
2023-04-19T07:37:48.177Z,15.25
2023-04-19T07:40:15.385Z,16.83
2023-04-19T07:42:43.346Z,20.87
2023-04-19T07:45:10.990Z,17.42
2023-04-19T07:47:38.182Z,22.17
2023-04-19T07:50:07.786Z,22.17
2023-04-19T07:52:34.960Z,16.27
2023-04-19T07:55:02.101Z,15.57
2023-04-19T07:57:31.847Z,22.17
2023-04-19T07:59:59.478Z,12.15
2023-04-19T08:02:28.069Z,15.45
2023-04-19T08:04:55.814Z,13.93
2023-04-19T08:07:23.732Z,20.10
2023-04-19T08:09:51.065Z,23.00
2023-04-19T08:12:31.006Z,20.23
2023-04-19T08:15:15.327Z,14.27
2023-04-19T08:17:51.988Z,13.15
2023-04-19T08:20:19.667Z,12.73
2023-04-19T08:22:46.760Z,13.10
2023-04-19T08:25:13.916Z,11.10
2023-04-19T08:27:41.115Z,13.02
2023-04-19T08:30:09.189Z,10.70
2023-04-19T08:32:36.464Z,15.03
2023-04-19T08:35:04.381Z,20.45
2023-04-19T08:37:31.588Z,12.38
2023-04-19T08:39:58.612Z,11.48
2023-04-19T08:42:35.821Z,12.43
2023-04-19T08:47:45.270Z,14.43
2023-04-19T08:50:32.519Z,13.32
2023-04-19T08:53:16.185Z,14.10
2023-04-19T08:56:08.836Z,18.40
2023-04-19T08:58:54.703Z,15.47
2023-04-19T09:04:02.672Z,13.38
2023-04-19T09:06:38.172Z,9.35
2023-04-19T09:09:28.775Z,20.92
2023-04-19T09:12:01.635Z,15.10
2023-04-19T09:14:30.283Z,13.77
2023-04-19T09:17:16.809Z,12.18
2023-04-19T09:19:48.397Z,14.80
2023-04-19T09:22:15.824Z,13.23
2023-04-19T09:27:15.218Z,15.80
2023-04-19T09:29:42.520Z,18.70
2023-04-19T09:32:09.665Z,24.08
2023-04-19T09:34:54.552Z,16.98
2023-04-19T09:37:39.163Z,13.97
2023-04-19T09:40:25.313Z,11.02
2023-04-19T09:48:09.943Z,12.68
2023-04-19T09:50:58.507Z,12.10
2023-04-19T09:53:34.495Z,11.55
2023-04-19T09:56:03.379Z,12.13
2023-04-19T09:58:42.653Z,13.43
2023-04-19T10:01:19.102Z,14.85
2023-04-19T10:03:49.770Z,16.48
2023-04-19T10:08:51.023Z,10.77
2023-04-19T10:11:21.982Z,10.95
2023-04-19T10:13:50.239Z,8.68
2023-04-19T10:16:19.914Z,11.23
2023-04-19T10:18:50.708Z,9.50
2023-04-19T10:21:20.186Z,12.25
2023-04-19T10:23:48.242Z,10.95
2023-04-19T10:26:15.409Z,11.60
2023-04-19T10:28:42.839Z,16.10
2023-04-19T10:31:16.212Z,21.20
2023-04-19T10:33:43.588Z,14.88
2023-04-19T10:36:14.830Z,13.25
2023-04-19T10:38:44.752Z,11.75
2023-04-19T10:41:15.464Z,12.65
2023-04-19T10:43:48.108Z,12.43
2023-04-19T10:46:21.094Z,14.48
2023-04-19T10:48:54.964Z,18.90
2023-04-19T10:51:28.076Z,12.40
2023-04-19T10:54:00.571Z,13.88
2023-04-19T10:56:33.975Z,13.20
2023-04-19T10:59:01.603Z,16.60
2023-04-19T11:01:37.485Z,12.73
2023-04-19T11:04:05.110Z,17.45
2023-04-19T11:06:33.921Z,9.25
2023-04-19T11:09:02.954Z,10.75
2023-04-19T11:11:33.896Z,12.20
2023-04-19T11:14:03.211Z,13.82
2023-04-19T11:16:42.361Z,12.63
2023-04-19T11:19:20.389Z,9.52
2023-04-19T11:21:48.138Z,10.02
2023-04-19T11:24:19.200Z,13.32
2023-04-19T11:26:46.808Z,13.02
2023-04-19T11:29:14.697Z,12.85
2023-04-19T11:31:46.517Z,10.93
2023-04-19T11:34:14.006Z,11.32
2023-04-19T11:36:48.859Z,14.18
2023-04-19T11:39:16.490Z,12.65
2023-04-19T11:41:43.594Z,11.68
2023-04-19T11:44:20.561Z,20.23
2023-04-19T11:47:05.177Z,12.95
2023-04-19T11:49:33.806Z,13.50
2023-04-19T11:52:05.307Z,17.35
2023-04-19T11:54:33.963Z,10.32
2023-04-19T11:57:06.255Z,13.18
2023-04-19T11:59:37.597Z,13.60
2023-04-19T12:02:09.441Z,10.60
2023-04-19T12:04:37.471Z,11.90
2023-04-19T12:07:06.073Z,9.75
2023-04-19T12:09:37.106Z,12.30
2023-04-19T12:12:04.460Z,14.50
2023-04-19T12:14:31.768Z,9.75
2023-04-19T12:17:14.627Z,10.10
2023-04-19T12:19:48.002Z,10.50
2023-04-19T12:22:24.430Z,12.15
2023-04-19T12:24:53.542Z,11.40
2023-04-19T12:27:20.688Z,17.73
2023-04-19T12:29:47.766Z,18.10
2023-04-19T12:32:16.239Z,7.65
2023-04-19T12:34:43.510Z,11.18
2023-04-19T12:37:10.914Z,12.18
2023-04-19T12:39:38.082Z,10.65
2023-04-19T12:42:06.340Z,12.70
2023-04-19T12:44:33.459Z,9.82
2023-04-19T12:47:00.567Z,9.48
2023-04-19T12:49:27.917Z,9.55
2023-04-19T12:51:57.242Z,8.13
2023-04-19T12:54:24.756Z,9.02
2023-04-19T12:56:52.383Z,13.13
2023-04-19T12:59:19.717Z,8.68
2023-04-19T13:01:46.938Z,10.00
2023-04-19T13:04:14.329Z,9.43
2023-04-19T13:06:42.207Z,16.98
2023-04-19T13:11:39.380Z,9.48
2023-04-19T13:14:06.447Z,11.32
2023-04-19T13:16:33.545Z,10.02
2023-04-19T13:19:00.739Z,10.50
2023-04-19T13:21:28.085Z,11.05
2023-04-19T13:23:55.222Z,17.38
2023-04-19T13:26:22.430Z,15.63
2023-04-19T13:28:49.814Z,9.30
2023-04-19T13:31:17.050Z,9.45
2023-04-19T13:33:44.307Z,12.43
2023-04-19T13:36:11.378Z,11.50
2023-04-19T13:38:38.628Z,15.05
2023-04-19T13:41:06.021Z,13.27
2023-04-19T13:43:33.080Z,14.65
2023-04-19T13:46:00.269Z,12.63
2023-04-19T13:48:30.364Z,11.70
2023-04-19T13:50:58.371Z,10.40
2023-04-19T13:53:27.232Z,9.60
2023-04-19T13:55:54.513Z,9.27
2023-04-19T13:58:21.649Z,9.27
2023-04-19T14:00:48.783Z,8.18
2023-04-19T14:03:16.175Z,9.70
2023-04-19T14:05:43.664Z,11.63
2023-04-19T14:08:10.814Z,12.43
2023-04-19T14:10:38.210Z,10.57
2023-04-19T14:13:05.616Z,13.43
2023-04-19T14:15:32.699Z,12.48
2023-04-19T14:18:00.585Z,11.98
2023-04-19T14:20:27.802Z,8.27
2023-04-19T14:22:56.258Z,21.10
2023-04-19T14:25:23.405Z,17.80
2023-04-19T14:27:50.476Z,12.38
2023-04-19T14:30:18.028Z,21.00
2023-04-19T14:32:45.372Z,13.13
2023-04-19T14:35:12.696Z,9.20
2023-04-19T14:37:39.939Z,14.60
2023-04-19T14:40:07.793Z,9.35
2023-04-19T14:42:34.939Z,9.68
2023-04-19T14:45:02.286Z,9.95
2023-04-19T14:47:31.460Z,12.63
2023-04-19T14:49:58.542Z,19.15
2023-04-19T14:52:26.065Z,9.65
2023-04-19T14:54:53.288Z,10.15
2023-04-19T14:57:23.018Z,7.82
2023-04-19T14:59:50.520Z,8.80
2023-04-19T15:02:17.828Z,8.30
2023-04-19T15:04:45.166Z,8.38
2023-04-19T15:07:12.317Z,15.70
2023-04-19T15:09:40.440Z,11.27
2023-04-19T15:12:07.769Z,12.40
2023-04-19T15:14:35.088Z,8.30
2023-04-19T15:17:03.898Z,8.25
2023-04-19T15:19:31.307Z,19.25
2023-04-19T15:21:58.620Z,11.23
2023-04-19T15:24:25.913Z,10.50
2023-04-19T15:26:56.796Z,9.60
2023-04-19T15:29:23.959Z,11.75
2023-04-19T15:31:51.157Z,11.00
2023-04-19T15:34:18.366Z,11.10
2023-04-19T15:36:46.054Z,15.93
2023-04-19T15:39:13.245Z,15.30
2023-04-19T15:41:40.286Z,7.95
2023-04-19T15:44:07.339Z,8.98
2023-04-19T15:46:34.614Z,8.45
2023-04-19T15:49:01.941Z,10.10
2023-04-19T15:51:28.971Z,17.13
2023-04-19T15:53:56.135Z,11.63
2023-04-19T15:56:23.343Z,10.65
2023-04-19T15:58:50.424Z,11.82
2023-04-19T16:01:19.096Z,9.52
2023-04-19T16:03:46.738Z,8.35
2023-04-19T16:06:14.008Z,9.13
2023-04-19T16:08:41.082Z,10.85
2023-04-19T16:11:08.255Z,10.98
2023-04-19T16:13:35.603Z,9.15
2023-04-19T16:16:02.790Z,10.50
2023-04-19T16:18:29.941Z,7.93
2023-04-19T16:20:56.954Z,9.70
2023-04-19T16:23:35.090Z,10.57
2023-04-19T16:26:54.973Z,12.55
2023-04-19T16:30:23.437Z,11.88
2023-04-19T16:33:24.489Z,9.50
2023-04-19T16:36:03.580Z,9.38
2023-04-19T16:39:10.443Z,9.27
2023-04-19T16:41:53.461Z,9.30
2023-04-19T16:44:32.407Z,10.07
2023-04-19T16:47:02.731Z,10.98
2023-04-19T16:49:29.823Z,8.18
2023-04-19T16:51:57.172Z,20.02
2023-04-19T16:54:24.240Z,16.05
2023-04-19T16:56:51.227Z,12.50
2023-04-19T16:59:18.578Z,11.23
2023-04-19T17:01:45.820Z,12.10
2023-04-19T17:04:13.183Z,13.80
2023-04-19T17:06:40.486Z,12.88
2023-04-19T17:09:07.895Z,11.50
2023-04-19T17:11:34.957Z,10.00
2023-04-19T17:14:01.989Z,14.13
2023-04-19T17:16:29.153Z,12.95
2023-04-19T17:18:56.369Z,9.77
2023-04-19T17:21:23.421Z,11.77
2023-04-19T17:23:50.652Z,11.80
2023-04-19T17:26:17.659Z,8.93
2023-04-19T17:28:44.740Z,11.88
2023-04-19T17:31:11.949Z,9.25
2023-04-19T17:33:39.058Z,12.70
2023-04-19T17:36:07.258Z,15.27
2023-04-19T17:38:34.322Z,8.57
2023-04-19T17:41:02.903Z,8.77
2023-04-19T17:43:29.989Z,13.25
2023-04-19T17:45:58.129Z,13.90
2023-04-19T17:48:25.545Z,13.68
2023-04-19T17:50:52.559Z,13.43
2023-04-19T17:53:19.732Z,12.13
2023-04-19T17:55:46.909Z,12.88
2023-04-19T17:58:13.952Z,12.48
2023-04-19T18:00:41.117Z,16.45
2023-04-19T18:03:11.087Z,13.93
2023-04-19T18:05:42.272Z,14.15
2023-04-19T18:08:10.117Z,14.38
2023-04-19T18:10:37.223Z,13.43
2023-04-19T18:13:04.453Z,13.57
2023-04-19T18:15:31.469Z,11.70
2023-04-19T18:17:58.530Z,8.13
2023-04-19T18:20:26.304Z,12.90
2023-04-19T18:22:53.630Z,8.98
2023-04-19T18:25:20.832Z,12.85
2023-04-19T18:27:50.501Z,11.48
2023-04-19T18:30:17.582Z,15.18
2023-04-19T18:32:44.664Z,13.20
2023-04-19T18:35:11.740Z,10.32
2023-04-19T18:37:39.376Z,14.00
2023-04-19T18:40:07.420Z,12.45
2023-04-19T18:42:34.645Z,7.80
2023-04-19T18:45:04.077Z,12.27
2023-04-19T18:47:32.662Z,9.05
2023-04-19T18:50:05.277Z,10.23
2023-04-19T18:52:36.478Z,11.57
2023-04-19T18:55:07.746Z,12.05
2023-04-19T18:57:35.441Z,13.05
2023-04-19T19:00:06.293Z,12.30
2023-04-19T19:02:36.413Z,10.10
2023-04-19T19:05:07.446Z,8.63
2023-04-19T19:07:37.240Z,10.45
2023-04-19T19:12:41.068Z,12.18
2023-04-19T19:15:08.669Z,13.25
2023-04-19T19:17:35.916Z,11.27
2023-04-19T19:20:04.855Z,13.85
2023-04-19T19:22:32.079Z,14.35
2023-04-19T19:24:59.787Z,9.35
2023-04-19T19:27:26.996Z,13.02
2023-04-19T19:29:56.655Z,11.60
2023-04-19T19:32:23.842Z,12.02
2023-04-19T19:34:56.663Z,8.83
2023-04-19T19:37:31.141Z,14.93
2023-04-19T19:40:04.242Z,8.80
2023-04-19T19:42:33.524Z,14.35
2023-04-19T19:45:00.976Z,11.05
2023-04-19T19:47:30.784Z,14.63
2023-04-19T19:50:46.143Z,8.85
2023-04-19T19:52:52.257Z,16.40
2023-04-19T19:55:19.369Z,12.13
2023-04-19T20:00:39.654Z,13.07
2023-04-19T20:03:06.624Z,12.48
2023-04-19T20:05:34.330Z,11.13
2023-04-19T20:08:10.383Z,11.52
2023-04-19T20:10:39.021Z,13.02
2023-04-19T20:13:06.873Z,14.55
2023-04-19T20:15:38.034Z,15.73
2023-04-19T20:18:05.557Z,13.65
2023-04-19T20:20:32.874Z,12.50
2023-04-19T20:23:00.015Z,14.65
2023-04-19T20:25:27.269Z,14.90
2023-04-19T20:27:55.203Z,13.50
2023-04-19T20:30:22.443Z,12.43
2023-04-19T20:32:50.505Z,11.55
2023-04-19T20:35:18.212Z,11.63
2023-04-19T20:37:47.172Z,13.57
2023-04-19T20:40:16.300Z,13.60
2023-04-19T20:42:45.020Z,15.13
2023-04-19T20:45:14.503Z,15.90
2023-04-19T20:47:42.945Z,11.82
2023-04-19T20:50:10.676Z,15.10
2023-04-19T20:52:37.775Z,19.65
2023-04-19T20:55:05.294Z,11.00
2023-04-19T20:57:32.444Z,12.48
2023-04-19T21:00:00.131Z,14.43
2023-04-19T21:02:28.069Z,13.15
2023-04-19T21:04:55.188Z,16.05
2023-04-19T21:07:22.223Z,15.40
2023-04-19T21:09:49.232Z,28.13
2023-04-19T21:12:17.994Z,24.50
2023-04-19T21:14:47.769Z,14.37
2023-04-19T21:17:16.355Z,15.73
2023-04-19T21:19:43.405Z,18.15
2023-04-19T21:22:10.620Z,15.68
2023-04-19T21:24:37.641Z,14.75
2023-04-19T21:27:05.294Z,15.93
2023-04-19T21:29:32.901Z,10.82
2023-04-19T21:32:00.092Z,22.08
2023-04-19T21:34:27.418Z,13.32
2023-04-19T21:36:54.626Z,13.45
2023-04-19T21:39:21.691Z,14.37
2023-04-19T21:41:48.710Z,20.05
2023-04-19T21:44:15.850Z,17.02
2023-04-19T21:46:42.901Z,14.50
2023-04-19T21:49:09.917Z,12.93
2023-04-19T21:51:36.996Z,10.33
2023-04-19T21:54:04.126Z,13.77
2023-04-19T21:56:49.885Z,10.55
2023-04-19T21:59:17.033Z,15.00
2023-04-19T22:01:44.373Z,13.63
2023-04-19T22:04:12.315Z,14.17
2023-04-19T22:06:39.497Z,13.07
2023-04-19T22:09:06.983Z,12.35
2023-04-19T22:11:37.124Z,13.38
2023-04-19T22:14:04.205Z,15.32
2023-04-19T22:16:32.935Z,12.53
2023-04-19T22:19:00.091Z,10.18
2023-04-19T22:21:27.210Z,12.52
2023-04-19T22:23:54.397Z,10.73
2023-04-19T22:26:22.410Z,14.07
2023-04-19T22:28:49.425Z,17.37
2023-04-19T22:31:16.530Z,14.73
2023-04-19T22:33:43.642Z,12.85
2023-04-19T22:36:10.932Z,12.85
2023-04-19T22:38:38.055Z,15.63
2023-04-19T22:41:05.341Z,15.03
2023-04-19T22:43:33.255Z,17.20
2023-04-19T22:46:01.357Z,16.55
2023-04-19T22:48:30.248Z,12.55
2023-04-19T22:50:57.357Z,10.10
2023-04-19T22:53:24.512Z,15.10
2023-04-19T22:55:51.625Z,14.23
2023-04-19T22:58:19.921Z,17.27
2023-04-19T23:00:46.966Z,14.85
2023-04-19T23:03:14.007Z,13.30
2023-04-19T23:05:41.915Z,11.10
2023-04-19T23:08:09.557Z,15.45
2023-04-19T23:10:39.363Z,15.13
2023-04-19T23:13:06.966Z,13.00
2023-04-19T23:15:34.621Z,11.82
2023-04-19T23:18:03.869Z,13.60
2023-04-19T23:20:31.764Z,11.15
2023-04-19T23:22:59.492Z,14.85
2023-04-19T23:25:26.609Z,12.35
2023-04-19T23:27:53.580Z,17.70
2023-04-19T23:30:20.859Z,13.33
2023-04-19T23:32:47.915Z,11.05
2023-04-19T23:35:15.184Z,11.82
2023-04-19T23:37:42.287Z,11.93
2023-04-19T23:40:10.440Z,12.95
2023-04-19T23:42:38.587Z,12.30
2023-04-19T23:45:06.895Z,13.80
2023-04-19T23:47:34.287Z,12.63
2023-04-19T23:50:01.416Z,11.65
2023-04-19T23:52:30.678Z,11.73
2023-04-19T23:54:57.818Z,15.10
2023-04-19T23:57:25.036Z,15.75
2023-04-19T23:59:52.127Z,17.58
